createdAt,value
2023-05-07T00:01:30.645Z,5.00
2023-05-07T00:04:00.086Z,4.53
2023-05-07T00:06:29.961Z,4.83
2023-05-07T00:08:58.562Z,4.90
2023-05-07T00:11:26.805Z,5.30
2023-05-07T00:13:54.711Z,5.20
2023-05-07T00:16:22.650Z,5.00
2023-05-07T00:18:50.563Z,5.13
2023-05-07T00:21:19.817Z,5.07
2023-05-07T00:23:47.713Z,4.90
2023-05-07T00:26:15.589Z,5.17
2023-05-07T00:28:43.551Z,5.10
2023-05-07T00:31:11.410Z,5.27
2023-05-07T00:33:40.044Z,5.20
2023-05-07T00:36:08.470Z,5.33
2023-05-07T00:38:37.723Z,5.03
2023-05-07T00:41:06.269Z,5.23
2023-05-07T00:43:34.195Z,5.37
2023-05-07T00:46:02.208Z,5.33
2023-05-07T00:48:30.139Z,5.40
2023-05-07T00:50:58.369Z,5.57
2023-05-07T00:53:27.665Z,5.27
2023-05-07T00:55:57.066Z,6.30
2023-05-07T00:58:24.923Z,6.73
2023-05-07T01:00:52.852Z,6.83
2023-05-07T01:03:20.822Z,6.70
2023-05-07T01:05:49.156Z,6.17
2023-05-07T01:08:17.459Z,7.23
2023-05-07T01:10:45.350Z,7.43
2023-05-07T01:13:14.774Z,6.77
2023-05-07T01:15:42.776Z,6.87
2023-05-07T01:18:10.735Z,6.93
2023-05-07T01:20:38.658Z,7.93
2023-05-07T01:23:07.898Z,7.43
2023-05-07T01:25:35.779Z,7.43
2023-05-07T01:28:03.632Z,7.50
2023-05-07T01:30:31.653Z,7.27
2023-05-07T01:33:01.266Z,7.80
2023-05-07T01:35:32.315Z,7.80
2023-05-07T01:38:00.197Z,7.40
2023-05-07T01:40:29.446Z,7.10
2023-05-07T01:42:57.311Z,7.10
2023-05-07T01:45:25.222Z,7.10
2023-05-07T01:47:53.166Z,6.03
2023-05-07T01:50:21.205Z,6.03
2023-05-07T01:52:49.300Z,7.23
2023-05-07T01:55:17.178Z,6.53
2023-05-07T01:57:46.677Z,6.47
2023-05-07T02:00:14.977Z,7.03
2023-05-07T02:02:43.022Z,6.30
2023-05-07T02:05:11.218Z,6.27
2023-05-07T02:07:39.093Z,5.53
2023-05-07T02:10:08.267Z,6.13
2023-05-07T02:12:36.303Z,5.93
2023-05-07T02:15:06.632Z,6.03
2023-05-07T02:17:34.968Z,6.07
2023-05-07T02:20:02.919Z,5.93
2023-05-07T02:22:31.323Z,5.80
2023-05-07T02:24:59.259Z,6.03
2023-05-07T02:27:27.109Z,5.57
2023-05-07T02:29:54.948Z,5.60
2023-05-07T02:32:24.342Z,5.90
2023-05-07T02:34:52.651Z,6.00
2023-05-07T02:37:20.567Z,5.40
2023-05-07T02:39:48.439Z,6.10
2023-05-07T02:42:16.330Z,6.33
2023-05-07T02:44:44.172Z,5.33
2023-05-07T02:47:14.089Z,5.93
2023-05-07T02:49:43.670Z,5.97
2023-05-07T02:52:11.564Z,5.43
2023-05-07T02:54:39.411Z,5.70
2023-05-07T02:57:07.287Z,5.77
2023-05-07T02:59:35.162Z,5.97
2023-05-07T03:02:03.046Z,5.57
2023-05-07T03:04:31.155Z,6.00
2023-05-07T03:07:00.451Z,6.20
2023-05-07T03:09:28.356Z,6.23
2023-05-07T03:11:56.422Z,6.17
2023-05-07T03:14:24.278Z,6.33
2023-05-07T03:16:52.215Z,6.77
2023-05-07T03:19:20.101Z,6.17
2023-05-07T03:21:48.335Z,6.67
2023-05-07T03:24:17.678Z,6.13
2023-05-07T03:26:45.580Z,6.50
2023-05-07T03:29:13.614Z,6.57
2023-05-07T03:31:41.512Z,6.40
2023-05-07T03:34:09.452Z,6.00
2023-05-07T03:36:37.386Z,5.93
2023-05-07T03:39:05.322Z,6.30
2023-05-07T03:41:34.585Z,6.30
2023-05-07T03:44:02.470Z,6.20
2023-05-07T03:46:30.366Z,6.80
2023-05-07T03:48:58.258Z,6.30
2023-05-07T03:51:26.424Z,6.73
2023-05-07T03:53:54.740Z,6.90
2023-05-07T03:56:22.977Z,6.80
2023-05-07T03:58:52.266Z,6.97
2023-05-07T04:01:20.143Z,6.63
2023-05-07T04:03:48.600Z,6.60
2023-05-07T04:06:18.388Z,6.23
2023-05-07T04:08:46.307Z,6.57
2023-05-07T04:11:14.177Z,6.33
2023-05-07T04:13:42.059Z,7.03
2023-05-07T04:16:11.349Z,6.67
2023-05-07T04:18:39.272Z,6.27
2023-05-07T04:21:07.494Z,6.53
2023-05-07T04:23:35.392Z,5.87
2023-05-07T04:26:04.207Z,6.37
2023-05-07T04:28:32.084Z,6.73
2023-05-07T04:30:59.971Z,6.63
2023-05-07T04:33:29.212Z,6.50
2023-05-07T04:35:57.472Z,6.63
2023-05-07T04:38:25.585Z,6.90
2023-05-07T04:40:54.010Z,6.50
2023-05-07T04:43:21.830Z,6.33
2023-05-07T04:45:50.381Z,5.73
2023-05-07T04:48:20.290Z,6.73
2023-05-07T04:50:51.015Z,6.83
2023-05-07T04:53:19.016Z,6.80
2023-05-07T04:55:47.049Z,6.07
2023-05-07T04:58:14.920Z,6.50
2023-05-07T05:00:43.433Z,6.90
2023-05-07T05:03:11.437Z,6.30
2023-05-07T05:05:39.414Z,6.43
2023-05-07T05:08:08.701Z,5.83
2023-05-07T05:10:36.605Z,6.30
2023-05-07T05:13:04.538Z,5.40
2023-05-07T05:15:33.866Z,5.87
2023-05-07T05:18:01.978Z,5.50
2023-05-07T05:20:29.879Z,6.20
2023-05-07T05:22:57.746Z,6.00
2023-05-07T05:25:27.000Z,5.67
2023-05-07T05:27:54.914Z,5.53
2023-05-07T05:30:23.230Z,5.80
2023-05-07T05:32:51.336Z,5.73
2023-05-07T05:35:19.312Z,5.70
2023-05-07T05:37:47.173Z,6.10
2023-05-07T05:40:15.084Z,6.70
2023-05-07T05:42:44.460Z,6.40
2023-05-07T05:45:12.658Z,6.30
2023-05-07T05:47:40.914Z,5.83
2023-05-07T05:50:10.415Z,4.77
2023-05-07T05:52:38.469Z,5.00
2023-05-07T05:55:07.201Z,4.80
2023-05-07T05:57:35.039Z,5.30
2023-05-07T06:00:05.359Z,4.70
2023-05-07T06:02:33.295Z,4.23
2023-05-07T06:05:01.350Z,4.73
2023-05-07T06:07:29.475Z,4.40
2023-05-07T06:09:57.447Z,4.97
2023-05-07T06:12:25.303Z,3.97
2023-05-07T06:14:53.221Z,4.33
2023-05-07T06:17:22.498Z,4.27
2023-05-07T06:19:50.372Z,4.10
2023-05-07T06:22:18.219Z,5.03
2023-05-07T06:24:46.075Z,4.67
2023-05-07T06:27:13.934Z,4.37
2023-05-07T06:29:41.894Z,4.70
2023-05-07T06:32:10.130Z,5.07
2023-05-07T06:34:39.536Z,4.73
2023-05-07T06:37:07.569Z,4.83
2023-05-07T06:39:35.455Z,6.27
2023-05-07T06:42:03.667Z,5.10
2023-05-07T06:44:31.558Z,5.77
2023-05-07T06:46:59.614Z,5.17
2023-05-07T06:49:27.571Z,5.63
2023-05-07T06:51:56.821Z,5.33
2023-05-07T06:54:24.678Z,5.77
2023-05-07T06:56:52.585Z,6.20
2023-05-07T06:59:21.356Z,5.87
2023-05-07T07:01:49.492Z,5.60
2023-05-07T07:04:17.429Z,5.63
2023-05-07T07:06:45.507Z,5.30
2023-05-07T07:09:14.759Z,5.47
2023-05-07T07:11:42.602Z,5.27
2023-05-07T07:14:10.656Z,5.90
2023-05-07T07:16:38.681Z,5.70
2023-05-07T07:19:06.695Z,5.37
2023-05-07T07:21:34.625Z,5.33
2023-05-07T07:24:02.524Z,5.57
2023-05-07T07:26:32.273Z,8.63
2023-05-07T07:29:00.168Z,7.13
2023-05-07T07:31:28.316Z,5.40
2023-05-07T07:33:56.425Z,5.70
2023-05-07T07:36:29.453Z,4.90
2023-05-07T07:39:09.617Z,5.17
2023-05-07T07:41:38.870Z,5.47
2023-05-07T07:44:08.626Z,4.97
2023-05-07T07:46:36.796Z,5.57
2023-05-07T07:49:04.885Z,5.07
2023-05-07T07:51:32.733Z,4.80
2023-05-07T07:54:01.905Z,4.83
2023-05-07T07:56:29.795Z,5.00
2023-05-07T07:58:59.033Z,4.23
2023-05-07T08:01:27.054Z,4.40
2023-05-07T08:03:55.409Z,3.67
2023-05-07T08:06:23.376Z,3.20
2023-05-07T08:08:51.332Z,3.50
2023-05-07T08:11:19.234Z,4.30
2023-05-07T08:13:47.898Z,3.50
2023-05-07T08:16:17.244Z,3.33
2023-05-07T08:18:45.126Z,3.23
2023-05-07T08:21:13.084Z,3.17
2023-05-07T08:23:40.983Z,2.80
2023-05-07T08:26:10.715Z,2.73
2023-05-07T08:28:38.542Z,3.03
2023-05-07T08:31:06.515Z,2.90
2023-05-07T08:33:35.784Z,2.60
2023-05-07T08:36:03.659Z,2.97
2023-05-07T08:38:31.551Z,2.27
2023-05-07T08:40:59.435Z,2.47
2023-05-07T08:43:28.538Z,2.97
2023-05-07T08:45:56.667Z,2.87
2023-05-07T08:48:26.105Z,2.47
2023-05-07T08:50:55.383Z,2.10
2023-05-07T08:53:23.255Z,2.40
2023-05-07T08:55:51.140Z,1.83
2023-05-07T08:58:19.107Z,2.00
2023-05-07T09:00:47.019Z,1.90
2023-05-07T09:03:15.472Z,1.83
2023-05-07T09:05:44.797Z,1.90
2023-05-07T09:08:16.935Z,1.53
2023-05-07T09:10:44.793Z,1.57
2023-05-07T09:13:14.201Z,1.70
2023-05-07T09:15:42.250Z,1.90
2023-05-07T09:18:10.137Z,1.73
2023-05-07T09:20:38.703Z,1.70
2023-05-07T09:23:06.596Z,2.07
2023-05-07T09:25:37.294Z,1.63
2023-05-07T09:28:05.588Z,1.80
2023-05-07T09:30:34.175Z,1.60
2023-05-07T09:33:03.710Z,1.70
2023-05-07T09:35:32.215Z,1.93
2023-05-07T09:38:03.918Z,2.10
2023-05-07T09:40:33.109Z,1.80
2023-05-07T09:43:12.752Z,1.70
2023-05-07T09:45:40.783Z,1.53
2023-05-07T09:48:09.068Z,1.30
2023-05-07T09:50:38.823Z,1.03
2023-05-07T09:53:06.981Z,1.10
2023-05-07T09:55:35.195Z,0.90
2023-05-07T09:58:03.709Z,1.00
2023-05-07T10:00:33.117Z,1.20
2023-05-07T10:03:01.216Z,1.17
2023-05-07T10:05:29.194Z,1.40
2023-05-07T10:07:58.291Z,1.30
2023-05-07T10:10:26.441Z,1.60
2023-05-07T10:12:54.377Z,1.57
2023-05-07T10:15:22.296Z,1.70
2023-05-07T10:17:51.804Z,2.00
2023-05-07T10:20:19.885Z,1.93
2023-05-07T10:22:49.529Z,2.10
2023-05-07T10:25:20.297Z,2.00
2023-05-07T10:27:48.428Z,2.20
2023-05-07T10:30:27.407Z,2.00
2023-05-07T10:32:57.682Z,1.90
2023-05-07T10:35:26.988Z,2.10
2023-05-07T10:37:54.831Z,2.30
2023-05-07T10:40:22.735Z,2.70
2023-05-07T10:42:57.858Z,2.20
2023-05-07T10:45:26.594Z,2.50
2023-05-07T10:50:43.724Z,2.13
2023-05-07T10:53:27.585Z,2.40
2023-05-07T10:56:38.883Z,2.10
2023-05-07T10:59:42.922Z,2.20
2023-05-07T11:02:12.423Z,1.83
2023-05-07T11:04:42.821Z,2.00
2023-05-07T11:07:40.202Z,2.20
2023-05-07T11:10:09.245Z,2.28
2023-05-07T11:13:04.017Z,2.20
2023-05-07T11:15:43.029Z,2.10
2023-05-07T11:18:11.182Z,1.60
2023-05-07T11:21:05.999Z,1.95
2023-05-07T11:23:59.707Z,1.85
2023-05-07T11:26:28.043Z,1.95
2023-05-07T11:28:56.277Z,2.80
2023-05-07T11:31:29.319Z,1.65
2023-05-07T11:33:57.317Z,1.70
2023-05-07T11:36:27.933Z,1.50
2023-05-07T11:38:55.891Z,1.77
2023-05-07T11:41:23.828Z,1.90
2023-05-07T11:44:01.560Z,1.60
2023-05-07T11:46:30.379Z,1.73
2023-05-07T11:48:58.504Z,1.63
2023-05-07T11:51:28.258Z,1.92
2023-05-07T11:53:56.185Z,1.70
2023-05-07T11:56:24.038Z,1.60
2023-05-07T11:58:53.184Z,1.63
2023-05-07T12:01:21.149Z,1.52
2023-05-07T12:03:49.176Z,1.60
2023-05-07T12:06:17.969Z,1.95
2023-05-07T12:08:48.302Z,1.50
2023-05-07T12:11:18.637Z,1.52
2023-05-07T12:13:47.080Z,1.80
2023-05-07T12:16:15.064Z,1.88
2023-05-07T12:18:43.124Z,1.60
2023-05-07T12:21:11.856Z,1.48
2023-05-07T12:23:39.823Z,1.35
2023-05-07T12:26:09.058Z,1.50
2023-05-07T12:28:40.693Z,1.35
2023-05-07T12:31:08.869Z,1.52
2023-05-07T12:33:37.012Z,1.70
2023-05-07T12:36:06.302Z,1.63
2023-05-07T12:38:37.371Z,1.67
2023-05-07T12:41:05.459Z,1.50
2023-05-07T12:43:34.780Z,1.90
2023-05-07T12:46:04.594Z,1.88
2023-05-07T12:48:33.146Z,1.90
2023-05-07T12:51:01.954Z,1.85
2023-05-07T12:53:32.180Z,1.80
2023-05-07T12:56:01.131Z,1.52
2023-05-07T12:58:29.645Z,2.00
2023-05-07T13:01:01.009Z,1.60
2023-05-07T13:03:29.927Z,1.40
2023-05-07T13:06:00.041Z,1.48
2023-05-07T13:08:29.057Z,1.55
2023-05-07T13:10:57.241Z,1.52
2023-05-07T13:13:25.679Z,1.60
2023-05-07T13:15:53.651Z,1.60
2023-05-07T13:18:23.184Z,1.67
2023-05-07T13:20:51.291Z,1.60
2023-05-07T13:23:19.261Z,1.55
2023-05-07T13:25:47.143Z,1.42
2023-05-07T13:28:14.994Z,1.38
2023-05-07T13:30:42.885Z,1.33
2023-05-07T13:33:11.080Z,1.60
2023-05-07T13:35:40.575Z,1.40
2023-05-07T13:38:08.400Z,1.30
2023-05-07T13:40:36.311Z,1.80
2023-05-07T13:43:04.384Z,1.58
2023-05-07T13:45:32.262Z,1.60
2023-05-07T13:48:00.364Z,1.30
2023-05-07T13:50:30.783Z,1.42
2023-05-07T13:53:00.104Z,1.48
2023-05-07T13:55:28.856Z,1.20
2023-05-07T13:57:58.033Z,1.30
2023-05-07T14:00:26.121Z,1.42
2023-05-07T14:02:54.222Z,1.30
2023-05-07T14:05:24.156Z,1.30
2023-05-07T14:07:52.933Z,1.30
2023-05-07T14:10:22.291Z,1.27
2023-05-07T14:12:50.198Z,1.52
2023-05-07T14:15:18.228Z,1.20
2023-05-07T14:17:46.235Z,1.27
2023-05-07T14:20:14.388Z,1.30
2023-05-07T14:22:42.462Z,1.40
2023-05-07T14:25:11.582Z,1.42
2023-05-07T14:27:40.921Z,1.50
2023-05-07T14:30:10.173Z,1.30
2023-05-07T14:32:38.237Z,1.33
2023-05-07T14:35:06.726Z,1.67
2023-05-07T14:37:34.601Z,1.38
2023-05-07T14:40:02.531Z,1.40
2023-05-07T14:42:30.440Z,1.70
2023-05-07T14:44:59.924Z,1.50
2023-05-07T14:47:27.876Z,1.40
2023-05-07T14:49:56.168Z,1.67
2023-05-07T14:52:24.100Z,1.77
2023-05-07T14:54:52.021Z,1.90
2023-05-07T14:57:20.395Z,2.25
2023-05-07T14:59:49.505Z,1.60
2023-05-07T15:02:21.207Z,2.00
2023-05-07T15:04:49.737Z,1.90
2023-05-07T15:07:18.585Z,1.85
2023-05-07T15:09:46.799Z,2.40
2023-05-07T15:12:14.882Z,2.80
2023-05-07T15:14:43.232Z,2.08
2023-05-07T15:17:11.101Z,2.65
2023-05-07T15:19:40.683Z,2.90
2023-05-07T15:22:08.573Z,2.97
2023-05-07T15:24:36.421Z,3.08
2023-05-07T15:27:04.796Z,2.35
2023-05-07T15:29:32.947Z,2.10
2023-05-07T15:32:00.930Z,2.53
2023-05-07T15:34:28.884Z,2.05
2023-05-07T15:36:59.064Z,2.20
2023-05-07T15:39:27.033Z,2.38
2023-05-07T15:41:54.928Z,2.17
2023-05-07T15:44:22.799Z,2.13
2023-05-07T15:46:50.717Z,2.53
2023-05-07T15:49:18.719Z,1.90
2023-05-07T15:51:46.593Z,1.92
2023-05-07T15:54:17.959Z,2.00
2023-05-07T15:56:45.810Z,1.83
2023-05-07T15:59:15.484Z,2.00
2023-05-07T16:01:43.676Z,1.98
2023-05-07T16:04:11.845Z,1.67
2023-05-07T16:06:41.221Z,1.90
2023-05-07T16:09:10.316Z,1.50
2023-05-07T16:11:39.553Z,1.88
2023-05-07T16:14:07.474Z,2.42
2023-05-07T16:16:35.422Z,2.08
2023-05-07T16:19:03.282Z,2.15
2023-05-07T16:21:31.540Z,2.27
2023-05-07T16:23:59.460Z,2.40
2023-05-07T16:26:27.465Z,2.10
2023-05-07T16:28:56.999Z,2.10
2023-05-07T16:31:25.858Z,2.03
2023-05-07T16:33:53.754Z,2.00
2023-05-07T16:36:21.773Z,2.20
2023-05-07T16:38:49.685Z,3.30
2023-05-07T16:41:17.602Z,3.30
2023-05-07T16:43:45.473Z,2.40
2023-05-07T16:46:14.786Z,2.70
2023-05-07T16:48:43.222Z,2.63
2023-05-07T16:51:11.128Z,2.37
2023-05-07T16:53:39.035Z,2.30
2023-05-07T16:56:07.046Z,2.67
2023-05-07T16:58:34.909Z,2.33
2023-05-07T17:01:03.857Z,2.47
2023-05-07T17:03:33.366Z,2.20
2023-05-07T17:06:01.303Z,2.30
2023-05-07T17:08:29.218Z,3.27
2023-05-07T17:10:57.155Z,2.97
2023-05-07T17:13:25.252Z,2.80
2023-05-07T17:15:53.504Z,5.07
2023-05-07T17:18:21.406Z,3.00
2023-05-07T17:20:50.732Z,3.30
2023-05-07T17:23:18.724Z,2.60
2023-05-07T17:25:46.579Z,2.10
2023-05-07T17:28:14.530Z,2.50
2023-05-07T17:30:42.596Z,2.00
2023-05-07T17:33:21.043Z,2.10
2023-05-07T17:35:51.509Z,2.20
2023-05-07T17:38:19.413Z,2.13
2023-05-07T17:40:47.314Z,2.40
2023-05-07T17:43:15.300Z,2.10
2023-05-07T17:45:43.238Z,3.43
2023-05-07T17:48:11.177Z,2.30
2023-05-07T17:50:39.150Z,2.70
2023-05-07T17:53:09.903Z,2.53
2023-05-07T17:55:40.465Z,2.03
2023-05-07T17:58:09.868Z,2.00
2023-05-07T18:00:37.806Z,7.47
2023-05-07T18:03:06.138Z,2.90
2023-05-07T18:05:36.783Z,3.63
2023-05-07T18:08:04.746Z,2.10
2023-05-07T18:10:33.979Z,2.33
2023-05-07T18:13:01.887Z,2.53
2023-05-07T18:15:29.851Z,2.57
2023-05-07T18:17:57.757Z,2.27
2023-05-07T18:20:32.515Z,2.77
2023-05-07T18:23:00.654Z,1.80
2023-05-07T18:25:28.513Z,2.10
2023-05-07T18:27:57.796Z,2.10
2023-05-07T18:30:25.645Z,1.80
2023-05-07T18:32:53.619Z,2.40
2023-05-07T18:35:21.485Z,4.80
2023-05-07T18:37:49.351Z,2.67
2023-05-07T18:40:17.455Z,5.40
2023-05-07T18:42:45.350Z,6.07
2023-05-07T18:45:15.007Z,3.43
2023-05-07T18:47:42.906Z,2.40
2023-05-07T18:50:11.802Z,4.00
2023-05-07T18:52:39.921Z,3.33
2023-05-07T18:55:09.574Z,3.40
2023-05-07T18:57:37.428Z,7.00
2023-05-07T19:00:09.304Z,3.90
2023-05-07T19:02:39.352Z,2.50
2023-05-07T19:05:08.141Z,2.20
2023-05-07T19:07:36.049Z,1.90
2023-05-07T19:10:06.012Z,1.80
2023-05-07T19:12:34.206Z,2.77
2023-05-07T19:15:02.251Z,3.50
2023-05-07T19:17:30.308Z,2.10
2023-05-07T19:19:59.647Z,1.40
2023-05-07T19:22:27.549Z,1.80
2023-05-07T19:24:55.422Z,1.80
2023-05-07T19:27:23.322Z,1.53
2023-05-07T19:29:51.223Z,2.50
2023-05-07T19:32:20.159Z,2.53
2023-05-07T19:34:48.070Z,2.20
2023-05-07T19:37:17.337Z,2.67
2023-05-07T19:39:45.188Z,2.63
2023-05-07T19:42:14.205Z,2.50
2023-05-07T19:44:42.148Z,1.93
2023-05-07T19:47:10.052Z,3.20
2023-05-07T19:49:37.968Z,1.70
2023-05-07T19:52:06.298Z,1.70
2023-05-07T19:54:35.546Z,2.30
2023-05-07T19:57:03.433Z,2.33
2023-05-07T19:59:31.533Z,2.10
2023-05-07T20:01:59.574Z,2.03
2023-05-07T20:04:31.859Z,2.63
2023-05-07T20:07:00.070Z,3.00
2023-05-07T20:09:27.918Z,4.00
2023-05-07T20:11:57.740Z,2.90
2023-05-07T20:14:25.727Z,3.57
2023-05-07T20:16:53.819Z,4.97
2023-05-07T20:19:21.698Z,6.57
2023-05-07T20:21:49.586Z,4.03
2023-05-07T20:24:19.190Z,3.83
2023-05-07T20:26:47.150Z,3.80
2023-05-07T20:29:16.421Z,2.90
2023-05-07T20:31:44.396Z,2.33
2023-05-07T20:34:12.389Z,2.30
2023-05-07T20:36:40.258Z,2.17
2023-05-07T20:39:08.357Z,2.10
2023-05-07T20:41:36.222Z,1.80
2023-05-07T20:44:04.107Z,2.30
2023-05-07T20:46:33.374Z,2.17
2023-05-07T20:49:01.499Z,2.60
2023-05-07T20:51:29.357Z,2.73
2023-05-07T20:53:57.227Z,2.50
2023-05-07T20:56:25.140Z,2.30
2023-05-07T20:58:53.244Z,2.67
2023-05-07T21:01:21.129Z,2.50
2023-05-07T21:03:53.871Z,2.80
2023-05-07T21:06:21.787Z,2.60
2023-05-07T21:08:49.632Z,2.67
2023-05-07T21:11:18.148Z,2.30
2023-05-07T21:13:46.114Z,2.80
2023-05-07T21:16:14.049Z,2.80
2023-05-07T21:18:42.015Z,2.70
2023-05-07T21:21:11.419Z,3.30
2023-05-07T21:23:39.320Z,2.63
2023-05-07T21:26:07.402Z,2.83
2023-05-07T21:28:35.247Z,3.17
2023-05-07T21:31:03.098Z,2.77
2023-05-07T21:33:30.958Z,3.03
2023-05-07T21:35:58.871Z,2.80
2023-05-07T21:38:28.206Z,2.93
2023-05-07T21:40:56.070Z,3.33
2023-05-07T21:43:23.944Z,3.40
2023-05-07T21:45:51.849Z,3.83
2023-05-07T21:48:22.076Z,3.13
2023-05-07T21:50:50.002Z,3.33
2023-05-07T21:53:17.880Z,3.20
2023-05-07T21:55:47.087Z,3.63
2023-05-07T21:58:15.119Z,4.00
2023-05-07T22:00:43.013Z,4.00
2023-05-07T22:03:10.971Z,4.07
2023-05-07T22:05:38.934Z,3.97
2023-05-07T22:08:06.828Z,4.60
2023-05-07T22:10:34.836Z,4.07
2023-05-07T22:13:04.203Z,4.53
2023-05-07T22:15:35.274Z,4.60
2023-05-07T22:18:05.328Z,4.57
2023-05-07T22:20:33.239Z,4.93
2023-05-07T22:23:01.132Z,4.03
2023-05-07T22:25:32.500Z,4.50
2023-05-07T22:28:00.483Z,4.80
2023-05-07T22:30:29.884Z,3.87
2023-05-07T22:32:57.786Z,5.00
2023-05-07T22:35:25.708Z,5.03
2023-05-07T22:37:53.627Z,4.33
2023-05-07T22:40:21.603Z,4.23
2023-05-07T22:42:49.478Z,4.87
2023-05-07T22:45:17.323Z,4.80
2023-05-07T22:47:46.665Z,4.90
2023-05-07T22:50:14.701Z,4.50
2023-05-07T22:52:42.963Z,4.53
2023-05-07T22:55:11.171Z,4.40
2023-05-07T22:57:39.062Z,4.50
2023-05-07T23:00:08.017Z,4.50
2023-05-07T23:02:36.183Z,4.73
2023-05-07T23:05:06.054Z,4.47
2023-05-07T23:07:33.933Z,4.70
2023-05-07T23:10:01.860Z,4.70
2023-05-07T23:12:29.704Z,4.90
2023-05-07T23:14:57.807Z,4.40
2023-05-07T23:17:25.793Z,4.33
2023-05-07T23:19:53.753Z,4.73
2023-05-07T23:22:22.981Z,4.27
2023-05-07T23:24:50.883Z,4.00
2023-05-07T23:27:18.737Z,4.13
2023-05-07T23:29:46.968Z,3.90
2023-05-07T23:32:14.849Z,4.10
2023-05-07T23:34:42.732Z,4.20
2023-05-07T23:37:10.666Z,4.03
2023-05-07T23:39:39.990Z,4.00
2023-05-07T23:42:07.907Z,3.93
2023-05-07T23:44:35.781Z,3.73
2023-05-07T23:47:03.683Z,3.80
2023-05-07T23:49:31.601Z,3.80
2023-05-07T23:51:59.495Z,4.10
2023-05-07T23:54:27.359Z,5.17
2023-05-07T23:56:56.605Z,4.57
2023-05-07T23:59:24.504Z,4.60
